Portada
METAR-TAF:

METAR-TAF

Aeroports :

Ube, Japó

latitud: 33-57N, longitud: 131-15E, altitud: 5 m

Observació

L'informe es va fer fa 7 hores i 57 minuts, a les 12:00 UTC
Vent 2 kt amb direcció variable
Temperatura 11°C
Humitat 82%
Pressió 1018 hPa
Visibilitat 10 km o més
Escasses núvols a una alçada de 3000 ft
Núvols disperses a una alçada de 4500 ft
Cel ennuvolat a una alçada de 6000 ft

METAR: RJDC 181200Z VRB02KT 9999 FEW030 SCT045 BKN060 11/08 Q1018

Hora: 04:57 (19:57 UTC)


TAF: manca

Observacions i pronòstics meteorològics de més de 4000 aeroports (METAR i TAF).

Les estacions disponibles són els punts grocs i vermells al mapa.

Posi el ratolí al punt desitjat per veure el nom de l'estació.

Feu clic per veure les observacions i els pronòstics meteorològics.

Per canviar el mapa: feu clic els botons verds amb una creu de color negre per apropar; al botó verd amb un guió per allunyar la imatge; o en les fletxes verdes per a mapes adjacents.


METAR-TAF: